sensor_id;sensor_type;location;lat;lon;timestamp;temperature;humidity
21261;DHT22;10788;47.930;9.766;2023-09-18T00:01:49;19.80;99.90
21261;DHT22;10788;47.930;9.766;2023-09-18T00:04:15;20.00;99.90
21261;DHT22;10788;47.930;9.766;2023-09-18T00:06:41;20.00;99.90
21261;DHT22;10788;47.930;9.766;2023-09-18T00:09:06;20.10;99.90
21261;DHT22;10788;47.930;9.766;2023-09-18T00:11:37;20.10;99.90
21261;DHT22;10788;47.930;9.766;2023-09-18T00:14:04;20.10;99.90
21261;DHT22;10788;47.930;9.766;2023-09-18T00:16:30;20.10;99.90
21261;DHT22;10788;47.930;9.766;2023-09-18T00:18:55;20.20;99.90
21261;DHT22;10788;47.930;9.766;2023-09-18T00:21:21;20.10;99.90
21261;DHT22;10788;47.930;9.766;2023-09-18T00:23:46;20.10;99.90
21261;DHT22;10788;47.930;9.766;2023-09-18T00:26:12;20.10;99.90
21261;DHT22;10788;47.930;9.766;2023-09-18T00:28:38;20.20;99.90
21261;DHT22;10788;47.930;9.766;2023-09-18T00:31:03;20.20;99.90
21261;DHT22;10788;47.930;9.766;2023-09-18T00:33:29;20.20;99.90
21261;DHT22;10788;47.930;9.766;2023-09-18T00:35:55;20.20;99.90
21261;DHT22;10788;47.930;9.766;2023-09-18T00:38:20;20.20;99.90
21261;DHT22;10788;47.930;9.766;2023-09-18T00:40:46;20.30;99.90
21261;DHT22;10788;47.930;9.766;2023-09-18T00:43:11;20.30;99.90
21261;DHT22;10788;47.930;9.766;2023-09-18T00:45:44;20.30;99.90
21261;DHT22;10788;47.930;9.766;2023-09-18T00:48:10;20.40;99.90
21261;DHT22;10788;47.930;9.766;2023-09-18T00:50:36;20.40;99.90
21261;DHT22;10788;47.930;9.766;2023-09-18T00:53:02;20.40;99.90
21261;DHT22;10788;47.930;9.766;2023-09-18T00:55:30;20.40;99.90
21261;DHT22;10788;47.930;9.766;2023-09-18T00:57:56;20.50;99.90
21261;DHT22;10788;47.930;9.766;2023-09-18T01:00:22;20.50;99.90
21261;DHT22;10788;47.930;9.766;2023-09-18T01:02:49;20.50;99.90
21261;DHT22;10788;47.930;9.766;2023-09-18T01:05:14;20.40;99.90
21261;DHT22;10788;47.930;9.766;2023-09-18T01:07:45;20.40;99.90
21261;DHT22;10788;47.930;9.766;2023-09-18T01:10:11;20.40;99.90
21261;DHT22;10788;47.930;9.766;2023-09-18T01:17:36;20.30;99.90
21261;DHT22;10788;47.930;9.766;2023-09-18T01:20:04;20.30;99.90
21261;DHT22;10788;47.930;9.766;2023-09-18T01:22:31;20.20;99.90
21261;DHT22;10788;47.930;9.766;2023-09-18T01:24:57;20.10;99.90
21261;DHT22;10788;47.930;9.766;2023-09-18T01:27:23;20.10;99.90
21261;DHT22;10788;47.930;9.766;2023-09-18T01:29:49;20.00;99.90
21261;DHT22;10788;47.930;9.766;2023-09-18T01:32:15;19.80;99.90
21261;DHT22;10788;47.930;9.766;2023-09-18T01:34:44;19.70;99.90
21261;DHT22;10788;47.930;9.766;2023-09-18T01:37:11;19.60;99.90
21261;DHT22;10788;47.930;9.766;2023-09-18T01:39:38;19.60;99.90
21261;DHT22;10788;47.930;9.766;2023-09-18T01:42:06;19.50;99.90
21261;DHT22;10788;47.930;9.766;2023-09-18T01:44:36;19.40;99.90
21261;DHT22;10788;47.930;9.766;2023-09-18T01:47:05;19.30;99.90
21261;DHT22;10788;47.930;9.766;2023-09-18T01:49:36;19.20;99.90
21261;DHT22;10788;47.930;9.766;2023-09-18T01:52:03;19.20;99.90
21261;DHT22;10788;47.930;9.766;2023-09-18T01:54:30;19.00;99.90
21261;DHT22;10788;47.930;9.766;2023-09-18T01:56:56;18.90;99.90
21261;DHT22;10788;47.930;9.766;2023-09-18T01:59:22;18.90;99.90
21261;DHT22;10788;47.930;9.766;2023-09-18T02:01:49;18.80;99.90
21261;DHT22;10788;47.930;9.766;2023-09-18T02:04:15;18.80;99.90
21261;DHT22;10788;47.930;9.766;2023-09-18T02:06:41;18.80;99.90
21261;DHT22;10788;47.930;9.766;2023-09-18T02:09:07;18.70;99.90
21261;DHT22;10788;47.930;9.766;2023-09-18T02:11:38;18.60;99.90
21261;DHT22;10788;47.930;9.766;2023-09-18T02:14:04;18.60;99.90
21261;DHT22;10788;47.930;9.766;2023-09-18T02:16:32;18.60;99.90
21261;DHT22;10788;47.930;9.766;2023-09-18T02:18:58;18.40;99.90
21261;DHT22;10788;47.930;9.766;2023-09-18T02:21:23;18.40;99.90
21261;DHT22;10788;47.930;9.766;2023-09-18T02:23:50;18.30;99.90
21261;DHT22;10788;47.930;9.766;2023-09-18T02:26:17;18.40;99.90
21261;DHT22;10788;47.930;9.766;2023-09-18T02:28:43;18.30;99.90
21261;DHT22;10788;47.930;9.766;2023-09-18T02:31:09;18.20;99.90
21261;DHT22;10788;47.930;9.766;2023-09-18T02:33:34;18.10;99.90
21261;DHT22;10788;47.930;9.766;2023-09-18T02:36:00;18.10;99.90
21261;DHT22;10788;47.930;9.766;2023-09-18T02:38:27;18.10;99.90
21261;DHT22;10788;47.930;9.766;2023-09-18T02:40:53;18.10;99.90
21261;DHT22;10788;47.930;9.766;2023-09-18T02:43:20;18.10;99.90
21261;DHT22;10788;47.930;9.766;2023-09-18T02:45:46;18.00;99.90
21261;DHT22;10788;47.930;9.766;2023-09-18T02:48:11;18.00;99.90
21261;DHT22;10788;47.930;9.766;2023-09-18T02:50:37;18.00;99.90
21261;DHT22;10788;47.930;9.766;2023-09-18T02:53:06;18.00;99.90
21261;DHT22;10788;47.930;9.766;2023-09-18T02:55:32;18.00;99.90
21261;DHT22;10788;47.930;9.766;2023-09-18T02:57:57;18.00;99.90
21261;DHT22;10788;47.930;9.766;2023-09-18T03:00:24;17.90;99.90
21261;DHT22;10788;47.930;9.766;2023-09-18T03:02:50;18.00;99.90
21261;DHT22;10788;47.930;9.766;2023-09-18T03:05:15;17.90;99.90
21261;DHT22;10788;47.930;9.766;2023-09-18T03:07:41;17.80;99.90
21261;DHT22;10788;47.930;9.766;2023-09-18T03:10:07;17.70;99.90
21261;DHT22;10788;47.930;9.766;2023-09-18T03:12:33;17.60;99.90
21261;DHT22;10788;47.930;9.766;2023-09-18T03:14:59;17.60;99.90
21261;DHT22;10788;47.930;9.766;2023-09-18T03:17:24;17.60;99.90
21261;DHT22;10788;47.930;9.766;2023-09-18T03:19:50;17.60;99.90
21261;DHT22;10788;47.930;9.766;2023-09-18T03:22:16;17.60;99.90
21261;DHT22;10788;47.930;9.766;2023-09-18T03:24:41;17.60;99.90
21261;DHT22;10788;47.930;9.766;2023-09-18T03:27:07;17.60;99.90
21261;DHT22;10788;47.930;9.766;2023-09-18T03:29:33;17.60;99.90
21261;DHT22;10788;47.930;9.766;2023-09-18T03:31:58;17.60;99.90
21261;DHT22;10788;47.930;9.766;2023-09-18T03:34:25;17.60;99.90
21261;DHT22;10788;47.930;9.766;2023-09-18T03:36:52;17.60;99.90
21261;DHT22;10788;47.930;9.766;2023-09-18T03:39:18;17.60;99.90
21261;DHT22;10788;47.930;9.766;2023-09-18T03:41:44;17.60;99.90
21261;DHT22;10788;47.930;9.766;2023-09-18T03:44:10;17.70;99.90
21261;DHT22;10788;47.930;9.766;2023-09-18T03:46:36;17.70;99.90
21261;DHT22;10788;47.930;9.766;2023-09-18T03:49:02;17.70;99.90
21261;DHT22;10788;47.930;9.766;2023-09-18T03:51:28;17.70;99.90
21261;DHT22;10788;47.930;9.766;2023-09-18T03:53:55;17.60;99.90
21261;DHT22;10788;47.930;9.766;2023-09-18T03:56:22;17.60;99.90
21261;DHT22;10788;47.930;9.766;2023-09-18T03:58:48;17.60;99.90
21261;DHT22;10788;47.930;9.766;2023-09-18T04:01:15;17.60;99.90
21261;DHT22;10788;47.930;9.766;2023-09-18T04:03:41;17.50;99.90
21261;DHT22;10788;47.930;9.766;2023-09-18T04:06:07;17.50;99.90
21261;DHT22;10788;47.930;9.766;2023-09-18T04:08:32;17.40;99.90
21261;DHT22;10788;47.930;9.766;2023-09-18T04:10:58;17.20;99.90
21261;DHT22;10788;47.930;9.766;2023-09-18T04:13:24;17.10;99.90
21261;DHT22;10788;47.930;9.766;2023-09-18T04:15:50;17.00;99.90
21261;DHT22;10788;47.930;9.766;2023-09-18T04:18:17;17.00;99.90
21261;DHT22;10788;47.930;9.766;2023-09-18T04:20:42;17.10;99.90
21261;DHT22;10788;47.930;9.766;2023-09-18T04:25:45;16.90;99.90
21261;DHT22;10788;47.930;9.766;2023-09-18T04:28:18;16.90;99.90
21261;DHT22;10788;47.930;9.766;2023-09-18T04:30:46;16.90;99.90
21261;DHT22;10788;47.930;9.766;2023-09-18T04:33:15;17.00;99.90
21261;DHT22;10788;47.930;9.766;2023-09-18T04:35:41;17.00;99.90
21261;DHT22;10788;47.930;9.766;2023-09-18T04:38:07;16.90;99.90
21261;DHT22;10788;47.930;9.766;2023-09-18T04:40:36;16.90;99.90
21261;DHT22;10788;47.930;9.766;2023-09-18T04:43:02;16.90;99.90
21261;DHT22;10788;47.930;9.766;2023-09-18T04:45:31;16.80;99.90
21261;DHT22;10788;47.930;9.766;2023-09-18T04:47:57;16.80;99.90
21261;DHT22;10788;47.930;9.766;2023-09-18T04:50:22;16.80;99.90
21261;DHT22;10788;47.930;9.766;2023-09-18T04:52:48;16.70;99.90
21261;DHT22;10788;47.930;9.766;2023-09-18T04:55:16;16.70;99.90
21261;DHT22;10788;47.930;9.766;2023-09-18T04:57:42;16.70;99.90
21261;DHT22;10788;47.930;9.766;2023-09-18T05:00:08;16.70;99.90
21261;DHT22;10788;47.930;9.766;2023-09-18T05:02:35;16.70;99.90
21261;DHT22;10788;47.930;9.766;2023-09-18T05:05:01;16.70;99.90
21261;DHT22;10788;47.930;9.766;2023-09-18T05:07:28;16.70;99.90
21261;DHT22;10788;47.930;9.766;2023-09-18T05:09:54;16.60;99.90
21261;DHT22;10788;47.930;9.766;2023-09-18T05:12:19;16.70;99.90
21261;DHT22;10788;47.930;9.766;2023-09-18T05:14:45;16.70;99.90
21261;DHT22;10788;47.930;9.766;2023-09-18T05:17:14;16.60;99.90
21261;DHT22;10788;47.930;9.766;2023-09-18T05:19:40;16.60;99.90
21261;DHT22;10788;47.930;9.766;2023-09-18T05:22:06;16.60;99.90
21261;DHT22;10788;47.930;9.766;2023-09-18T05:24:32;16.60;99.90
21261;DHT22;10788;47.930;9.766;2023-09-18T05:26:57;16.60;99.90
21261;DHT22;10788;47.930;9.766;2023-09-18T05:29:23;16.60;99.90
21261;DHT22;10788;47.930;9.766;2023-09-18T05:31:49;16.70;99.90
21261;DHT22;10788;47.930;9.766;2023-09-18T05:34:15;16.70;99.90
21261;DHT22;10788;47.930;9.766;2023-09-18T05:36:40;16.70;99.90
21261;DHT22;10788;47.930;9.766;2023-09-18T05:39:06;16.80;99.90
21261;DHT22;10788;47.930;9.766;2023-09-18T05:41:41;16.80;99.90
21261;DHT22;10788;47.930;9.766;2023-09-18T05:44:07;16.80;99.90
21261;DHT22;10788;47.930;9.766;2023-09-18T05:46:36;16.90;99.90
21261;DHT22;10788;47.930;9.766;2023-09-18T05:49:05;16.90;99.90
21261;DHT22;10788;47.930;9.766;2023-09-18T05:51:30;16.80;99.90
21261;DHT22;10788;47.930;9.766;2023-09-18T05:53:58;16.80;99.90
21261;DHT22;10788;47.930;9.766;2023-09-18T05:56:23;16.80;99.90
21261;DHT22;10788;47.930;9.766;2023-09-18T05:58:49;16.80;99.90
21261;DHT22;10788;47.930;9.766;2023-09-18T06:01:15;16.80;99.90
21261;DHT22;10788;47.930;9.766;2023-09-18T06:03:40;16.80;99.90
21261;DHT22;10788;47.930;9.766;2023-09-18T06:06:06;16.90;99.90
21261;DHT22;10788;47.930;9.766;2023-09-18T06:08:33;16.90;99.90
21261;DHT22;10788;47.930;9.766;2023-09-18T06:10:58;17.00;99.90
21261;DHT22;10788;47.930;9.766;2023-09-18T06:13:25;17.10;99.90
21261;DHT22;10788;47.930;9.766;2023-09-18T06:15:52;17.20;99.90
21261;DHT22;10788;47.930;9.766;2023-09-18T06:18:20;17.30;99.90
21261;DHT22;10788;47.930;9.766;2023-09-18T06:20:49;17.50;99.90
21261;DHT22;10788;47.930;9.766;2023-09-18T06:23:15;17.60;99.90
21261;DHT22;10788;47.930;9.766;2023-09-18T06:25:40;17.70;99.90
21261;DHT22;10788;47.930;9.766;2023-09-18T06:28:06;17.80;99.90
21261;DHT22;10788;47.930;9.766;2023-09-18T06:30:32;17.90;99.90
21261;DHT22;10788;47.930;9.766;2023-09-18T06:33:00;18.00;99.90
21261;DHT22;10788;47.930;9.766;2023-09-18T06:35:25;18.10;99.90
21261;DHT22;10788;47.930;9.766;2023-09-18T06:37:51;18.20;99.90
21261;DHT22;10788;47.930;9.766;2023-09-18T06:40:17;18.20;99.90
21261;DHT22;10788;47.930;9.766;2023-09-18T06:42:42;18.30;99.90
21261;DHT22;10788;47.930;9.766;2023-09-18T06:45:08;18.30;99.90
21261;DHT22;10788;47.930;9.766;2023-09-18T06:47:34;18.30;99.90
21261;DHT22;10788;47.930;9.766;2023-09-18T06:50:00;18.30;99.90
21261;DHT22;10788;47.930;9.766;2023-09-18T06:52:26;18.30;99.90
21261;DHT22;10788;47.930;9.766;2023-09-18T06:54:53;18.40;99.90
21261;DHT22;10788;47.930;9.766;2023-09-18T06:57:19;18.40;99.90
21261;DHT22;10788;47.930;9.766;2023-09-18T06:59:47;18.30;99.90
21261;DHT22;10788;47.930;9.766;2023-09-18T07:02:12;18.30;99.90
21261;DHT22;10788;47.930;9.766;2023-09-18T07:04:41;18.40;99.90
21261;DHT22;10788;47.930;9.766;2023-09-18T07:07:14;18.40;99.90
21261;DHT22;10788;47.930;9.766;2023-09-18T07:09:43;18.40;99.90
21261;DHT22;10788;47.930;9.766;2023-09-18T07:12:09;18.50;99.90
21261;DHT22;10788;47.930;9.766;2023-09-18T07:14:35;18.40;99.90
21261;DHT22;10788;47.930;9.766;2023-09-18T07:17:01;18.50;99.90
21261;DHT22;10788;47.930;9.766;2023-09-18T07:19:27;18.50;99.90
21261;DHT22;10788;47.930;9.766;2023-09-18T07:21:53;18.50;99.90
21261;DHT22;10788;47.930;9.766;2023-09-18T07:24:18;18.50;99.90
21261;DHT22;10788;47.930;9.766;2023-09-18T07:26:46;18.50;99.90
21261;DHT22;10788;47.930;9.766;2023-09-18T07:29:13;18.50;99.90
21261;DHT22;10788;47.930;9.766;2023-09-18T07:31:43;18.60;99.90
21261;DHT22;10788;47.930;9.766;2023-09-18T07:34:09;18.60;99.90
21261;DHT22;10788;47.930;9.766;2023-09-18T07:36:36;18.60;99.90
21261;DHT22;10788;47.930;9.766;2023-09-18T07:39:05;18.60;99.90
21261;DHT22;10788;47.930;9.766;2023-09-18T07:41:34;18.60;99.90
21261;DHT22;10788;47.930;9.766;2023-09-18T07:44:00;18.70;99.90
21261;DHT22;10788;47.930;9.766;2023-09-18T07:46:25;18.70;99.90
21261;DHT22;10788;47.930;9.766;2023-09-18T07:48:51;18.70;99.90
21261;DHT22;10788;47.930;9.766;2023-09-18T07:51:16;18.60;99.90
21261;DHT22;10788;47.930;9.766;2023-09-18T07:53:42;18.70;99.90
21261;DHT22;10788;47.930;9.766;2023-09-18T07:56:09;18.70;99.90
21261;DHT22;10788;47.930;9.766;2023-09-18T07:58:34;18.70;99.90
21261;DHT22;10788;47.930;9.766;2023-09-18T08:01:04;18.70;99.90
21261;DHT22;10788;47.930;9.766;2023-09-18T08:03:31;18.80;99.90
21261;DHT22;10788;47.930;9.766;2023-09-18T08:05:56;18.80;99.90
21261;DHT22;10788;47.930;9.766;2023-09-18T08:08:22;18.90;99.90
21261;DHT22;10788;47.930;9.766;2023-09-18T08:10:51;18.90;99.90
21261;DHT22;10788;47.930;9.766;2023-09-18T08:13:17;19.00;99.90
21261;DHT22;10788;47.930;9.766;2023-09-18T08:15:43;19.00;99.90
21261;DHT22;10788;47.930;9.766;2023-09-18T08:18:10;19.10;99.90
21261;DHT22;10788;47.930;9.766;2023-09-18T08:20:42;19.10;99.90
21261;DHT22;10788;47.930;9.766;2023-09-18T08:23:11;19.20;99.90
21261;DHT22;10788;47.930;9.766;2023-09-18T08:25:37;19.20;99.90
21261;DHT22;10788;47.930;9.766;2023-09-18T08:28:03;19.30;99.90
21261;DHT22;10788;47.930;9.766;2023-09-18T08:30:30;19.30;99.90
21261;DHT22;10788;47.930;9.766;2023-09-18T08:32:55;19.30;99.90
21261;DHT22;10788;47.930;9.766;2023-09-18T08:35:21;19.30;99.90
21261;DHT22;10788;47.930;9.766;2023-09-18T08:37:48;19.30;99.90
21261;DHT22;10788;47.930;9.766;2023-09-18T08:40:14;19.30;99.90
21261;DHT22;10788;47.930;9.766;2023-09-18T08:42:44;19.40;99.90
21261;DHT22;10788;47.930;9.766;2023-09-18T08:45:17;19.40;99.90
21261;DHT22;10788;47.930;9.766;2023-09-18T08:47:45;19.50;99.90
21261;DHT22;10788;47.930;9.766;2023-09-18T08:50:11;19.50;99.90
21261;DHT22;10788;47.930;9.766;2023-09-18T08:52:37;19.50;99.90
21261;DHT22;10788;47.930;9.766;2023-09-18T08:55:05;19.50;99.90
21261;DHT22;10788;47.930;9.766;2023-09-18T08:57:31;19.40;99.90
21261;DHT22;10788;47.930;9.766;2023-09-18T08:59:57;19.50;99.90
21261;DHT22;10788;47.930;9.766;2023-09-18T09:02:26;19.50;99.90
21261;DHT22;10788;47.930;9.766;2023-09-18T09:04:52;19.60;99.90
21261;DHT22;10788;47.930;9.766;2023-09-18T09:07:18;19.70;99.90
21261;DHT22;10788;47.930;9.766;2023-09-18T09:09:44;19.70;99.90
21261;DHT22;10788;47.930;9.766;2023-09-18T09:12:09;19.70;99.90
21261;DHT22;10788;47.930;9.766;2023-09-18T09:14:35;19.70;99.90
21261;DHT22;10788;47.930;9.766;2023-09-18T09:17:01;19.80;99.90
21261;DHT22;10788;47.930;9.766;2023-09-18T09:19:32;19.70;99.90
21261;DHT22;10788;47.930;9.766;2023-09-18T09:22:01;19.60;99.90
21261;DHT22;10788;47.930;9.766;2023-09-18T09:24:40;19.60;99.90
21261;DHT22;10788;47.930;9.766;2023-09-18T09:27:07;19.40;99.90
21261;DHT22;10788;47.930;9.766;2023-09-18T09:29:33;19.20;99.90
21261;DHT22;10788;47.930;9.766;2023-09-18T09:32:18;19.10;99.90
21261;DHT22;10788;47.930;9.766;2023-09-18T09:34:45;18.90;99.90
21261;DHT22;10788;47.930;9.766;2023-09-18T09:37:11;18.80;99.90
21261;DHT22;10788;47.930;9.766;2023-09-18T09:39:50;18.70;99.90
21261;DHT22;10788;47.930;9.766;2023-09-18T09:42:19;18.60;99.90
21261;DHT22;10788;47.930;9.766;2023-09-18T09:45:05;18.50;99.90
21261;DHT22;10788;47.930;9.766;2023-09-18T09:47:34;18.60;99.90
21261;DHT22;10788;47.930;9.766;2023-09-18T09:50:09;18.40;99.90
21261;DHT22;10788;47.930;9.766;2023-09-18T09:52:46;18.40;99.90
21261;DHT22;10788;47.930;9.766;2023-09-18T09:55:24;18.30;99.90
21261;DHT22;10788;47.930;9.766;2023-09-18T09:58:03;18.20;99.90
21261;DHT22;10788;47.930;9.766;2023-09-18T10:00:33;18.10;99.90
21261;DHT22;10788;47.930;9.766;2023-09-18T10:03:06;17.90;99.90
21261;DHT22;10788;47.930;9.766;2023-09-18T10:05:36;17.80;99.90
21261;DHT22;10788;47.930;9.766;2023-09-18T10:11:01;17.60;99.90
21261;DHT22;10788;47.930;9.766;2023-09-18T10:13:46;17.50;99.90
21261;DHT22;10788;47.930;9.766;2023-09-18T10:16:13;17.40;99.90
21261;DHT22;10788;47.930;9.766;2023-09-18T10:24:28;17.20;99.90
21261;DHT22;10788;47.930;9.766;2023-09-18T10:27:02;17.20;99.90
21261;DHT22;10788;47.930;9.766;2023-09-18T10:29:32;17.20;99.90
21261;DHT22;10788;47.930;9.766;2023-09-18T10:31:58;17.10;99.90
21261;DHT22;10788;47.930;9.766;2023-09-18T10:34:24;17.10;99.90
21261;DHT22;10788;47.930;9.766;2023-09-18T10:36:53;17.10;99.90
21261;DHT22;10788;47.930;9.766;2023-09-18T10:39:20;17.10;99.90
21261;DHT22;10788;47.930;9.766;2023-09-18T10:41:52;17.00;99.90
21261;DHT22;10788;47.930;9.766;2023-09-18T10:44:18;16.90;99.90
21261;DHT22;10788;47.930;9.766;2023-09-18T10:46:48;16.90;99.90
21261;DHT22;10788;47.930;9.766;2023-09-18T10:49:15;16.90;99.90
21261;DHT22;10788;47.930;9.766;2023-09-18T10:51:40;16.90;99.90
21261;DHT22;10788;47.930;9.766;2023-09-18T10:54:13;16.90;99.90
21261;DHT22;10788;47.930;9.766;2023-09-18T10:56:41;16.90;99.90
21261;DHT22;10788;47.930;9.766;2023-09-18T10:59:08;16.90;99.90
21261;DHT22;10788;47.930;9.766;2023-09-18T11:01:35;16.90;99.90
21261;DHT22;10788;47.930;9.766;2023-09-18T11:04:05;16.70;99.90
21261;DHT22;10788;47.930;9.766;2023-09-18T11:09:25;16.70;99.90
21261;DHT22;10788;47.930;9.766;2023-09-18T11:14:50;16.70;99.90
21261;DHT22;10788;47.930;9.766;2023-09-18T11:17:40;16.60;99.90
21261;DHT22;10788;47.930;9.766;2023-09-18T11:25:30;16.70;99.90
21261;DHT22;10788;47.930;9.766;2023-09-18T11:27:57;16.80;99.90
21261;DHT22;10788;47.930;9.766;2023-09-18T11:30:22;16.80;99.90
21261;DHT22;10788;47.930;9.766;2023-09-18T11:32:51;16.80;99.90
21261;DHT22;10788;47.930;9.766;2023-09-18T11:35:18;16.90;99.90
21261;DHT22;10788;47.930;9.766;2023-09-18T11:37:45;16.90;99.90
21261;DHT22;10788;47.930;9.766;2023-09-18T11:40:30;16.90;99.90
21261;DHT22;10788;47.930;9.766;2023-09-18T11:43:22;17.00;99.90
21261;DHT22;10788;47.930;9.766;2023-09-18T11:45:55;17.20;99.90
21261;DHT22;10788;47.930;9.766;2023-09-18T11:48:22;17.20;99.90
21261;DHT22;10788;47.930;9.766;2023-09-18T11:50:51;17.20;99.90
21261;DHT22;10788;47.930;9.766;2023-09-18T11:53:17;17.20;99.90
21261;DHT22;10788;47.930;9.766;2023-09-18T11:55:44;17.20;99.90
21261;DHT22;10788;47.930;9.766;2023-09-18T11:58:10;17.20;99.90
21261;DHT22;10788;47.930;9.766;2023-09-18T12:00:36;17.10;99.90
21261;DHT22;10788;47.930;9.766;2023-09-18T12:05:43;17.10;99.90
21261;DHT22;10788;47.930;9.766;2023-09-18T12:08:10;17.10;99.90
21261;DHT22;10788;47.930;9.766;2023-09-18T12:10:36;17.10;99.90
21261;DHT22;10788;47.930;9.766;2023-09-18T12:13:06;17.10;99.90
21261;DHT22;10788;47.930;9.766;2023-09-18T12:15:33;17.10;99.90
21261;DHT22;10788;47.930;9.766;2023-09-18T12:18:06;17.10;99.90
21261;DHT22;10788;47.930;9.766;2023-09-18T12:20:31;17.10;99.90
21261;DHT22;10788;47.930;9.766;2023-09-18T12:22:59;17.00;99.90
21261;DHT22;10788;47.930;9.766;2023-09-18T12:25:25;17.00;99.90
21261;DHT22;10788;47.930;9.766;2023-09-18T12:27:52;17.00;99.90
21261;DHT22;10788;47.930;9.766;2023-09-18T12:30:19;17.00;99.90
21261;DHT22;10788;47.930;9.766;2023-09-18T12:32:50;17.00;99.90
21261;DHT22;10788;47.930;9.766;2023-09-18T12:35:16;17.00;99.90
21261;DHT22;10788;47.930;9.766;2023-09-18T12:37:44;17.00;99.90
21261;DHT22;10788;47.930;9.766;2023-09-18T12:40:29;17.10;99.90
21261;DHT22;10788;47.930;9.766;2023-09-18T12:42:59;17.00;99.90
21261;DHT22;10788;47.930;9.766;2023-09-18T12:45:25;17.10;99.90
21261;DHT22;10788;47.930;9.766;2023-09-18T12:47:53;17.10;99.90
21261;DHT22;10788;47.930;9.766;2023-09-18T12:50:19;17.10;99.90
21261;DHT22;10788;47.930;9.766;2023-09-18T12:52:45;17.20;99.90
21261;DHT22;10788;47.930;9.766;2023-09-18T12:55:24;17.20;99.90
21261;DHT22;10788;47.930;9.766;2023-09-18T12:57:51;17.20;99.90
21261;DHT22;10788;47.930;9.766;2023-09-18T13:00:19;17.20;99.90
21261;DHT22;10788;47.930;9.766;2023-09-18T13:02:46;17.20;99.90
21261;DHT22;10788;47.930;9.766;2023-09-18T13:05:12;17.20;99.90
21261;DHT22;10788;47.930;9.766;2023-09-18T13:07:44;17.20;99.90
21261;DHT22;10788;47.930;9.766;2023-09-18T13:10:10;17.20;99.90
21261;DHT22;10788;47.930;9.766;2023-09-18T13:12:54;17.20;99.90
21261;DHT22;10788;47.930;9.766;2023-09-18T13:15:31;17.30;99.90
21261;DHT22;10788;47.930;9.766;2023-09-18T13:18:08;17.20;99.90
21261;DHT22;10788;47.930;9.766;2023-09-18T13:20:35;17.20;99.90
21261;DHT22;10788;47.930;9.766;2023-09-18T13:23:00;17.30;99.90
21261;DHT22;10788;47.930;9.766;2023-09-18T13:25:49;17.30;99.90
21261;DHT22;10788;47.930;9.766;2023-09-18T13:28:14;17.40;99.90
21261;DHT22;10788;47.930;9.766;2023-09-18T13:30:41;17.40;99.90
21261;DHT22;10788;47.930;9.766;2023-09-18T13:33:12;17.40;99.90
21261;DHT22;10788;47.930;9.766;2023-09-18T13:35:40;17.50;99.90
21261;DHT22;10788;47.930;9.766;2023-09-18T13:38:07;17.60;99.90
21261;DHT22;10788;47.930;9.766;2023-09-18T13:40:40;17.70;99.90
21261;DHT22;10788;47.930;9.766;2023-09-18T13:43:10;17.70;99.90
21261;DHT22;10788;47.930;9.766;2023-09-18T13:45:36;17.80;99.90
21261;DHT22;10788;47.930;9.766;2023-09-18T13:48:03;17.80;99.90
21261;DHT22;10788;47.930;9.766;2023-09-18T13:50:29;17.90;99.90
21261;DHT22;10788;47.930;9.766;2023-09-18T13:52:55;18.00;99.90
21261;DHT22;10788;47.930;9.766;2023-09-18T13:55:21;18.10;99.90
21261;DHT22;10788;47.930;9.766;2023-09-18T13:57:47;18.20;99.90
21261;DHT22;10788;47.930;9.766;2023-09-18T14:00:13;18.30;99.90
21261;DHT22;10788;47.930;9.766;2023-09-18T14:02:40;18.30;99.90
21261;DHT22;10788;47.930;9.766;2023-09-18T14:05:06;18.30;99.90
21261;DHT22;10788;47.930;9.766;2023-09-18T14:07:32;18.20;99.90
21261;DHT22;10788;47.930;9.766;2023-09-18T14:09:58;18.20;99.90
21261;DHT22;10788;47.930;9.766;2023-09-18T14:12:24;18.20;99.90
21261;DHT22;10788;47.930;9.766;2023-09-18T14:14:50;18.30;99.90
21261;DHT22;10788;47.930;9.766;2023-09-18T14:17:16;18.30;99.90
21261;DHT22;10788;47.930;9.766;2023-09-18T14:19:43;18.50;99.90
21261;DHT22;10788;47.930;9.766;2023-09-18T14:22:09;18.50;99.90
21261;DHT22;10788;47.930;9.766;2023-09-18T14:24:35;18.60;99.90
21261;DHT22;10788;47.930;9.766;2023-09-18T14:27:01;18.70;99.90
21261;DHT22;10788;47.930;9.766;2023-09-18T14:29:27;18.70;99.90
21261;DHT22;10788;47.930;9.766;2023-09-18T14:31:53;18.70;99.90
21261;DHT22;10788;47.930;9.766;2023-09-18T14:34:19;18.80;99.90
21261;DHT22;10788;47.930;9.766;2023-09-18T14:36:44;18.90;99.90
21261;DHT22;10788;47.930;9.766;2023-09-18T14:39:11;18.90;99.90
21261;DHT22;10788;47.930;9.766;2023-09-18T14:41:37;18.90;99.90
21261;DHT22;10788;47.930;9.766;2023-09-18T14:44:07;18.90;99.90
21261;DHT22;10788;47.930;9.766;2023-09-18T14:46:35;18.90;99.90
21261;DHT22;10788;47.930;9.766;2023-09-18T14:49:02;18.90;99.90
21261;DHT22;10788;47.930;9.766;2023-09-18T14:51:28;18.90;99.90
21261;DHT22;10788;47.930;9.766;2023-09-18T14:53:55;19.00;99.90
21261;DHT22;10788;47.930;9.766;2023-09-18T14:56:21;19.00;99.90
21261;DHT22;10788;47.930;9.766;2023-09-18T14:58:47;19.00;99.90
21261;DHT22;10788;47.930;9.766;2023-09-18T15:01:12;19.10;99.90
21261;DHT22;10788;47.930;9.766;2023-09-18T15:03:40;19.10;99.90
21261;DHT22;10788;47.930;9.766;2023-09-18T15:06:05;19.10;99.90
21261;DHT22;10788;47.930;9.766;2023-09-18T15:08:33;19.10;99.90
21261;DHT22;10788;47.930;9.766;2023-09-18T15:10:59;19.10;99.90
21261;DHT22;10788;47.930;9.766;2023-09-18T15:13:25;19.10;99.90
21261;DHT22;10788;47.930;9.766;2023-09-18T15:15:50;18.90;99.90
21261;DHT22;10788;47.930;9.766;2023-09-18T15:18:16;18.90;99.90
21261;DHT22;10788;47.930;9.766;2023-09-18T15:20:42;19.00;99.90
21261;DHT22;10788;47.930;9.766;2023-09-18T15:23:08;18.90;99.90
21261;DHT22;10788;47.930;9.766;2023-09-18T15:25:35;18.90;99.90
21261;DHT22;10788;47.930;9.766;2023-09-18T15:28:04;18.90;99.90
21261;DHT22;10788;47.930;9.766;2023-09-18T15:30:31;18.90;99.90
21261;DHT22;10788;47.930;9.766;2023-09-18T15:32:57;18.90;99.90
21261;DHT22;10788;47.930;9.766;2023-09-18T15:35:23;19.00;99.90
21261;DHT22;10788;47.930;9.766;2023-09-18T15:37:50;19.10;99.90
21261;DHT22;10788;47.930;9.766;2023-09-18T15:40:16;19.10;99.90
21261;DHT22;10788;47.930;9.766;2023-09-18T15:42:45;19.10;99.90
21261;DHT22;10788;47.930;9.766;2023-09-18T15:45:11;19.00;99.90
21261;DHT22;10788;47.930;9.766;2023-09-18T15:47:37;19.00;99.90
21261;DHT22;10788;47.930;9.766;2023-09-18T15:50:05;19.00;99.90
21261;DHT22;10788;47.930;9.766;2023-09-18T15:52:31;19.10;99.90
21261;DHT22;10788;47.930;9.766;2023-09-18T15:54:57;19.10;99.90
21261;DHT22;10788;47.930;9.766;2023-09-18T15:57:24;19.10;99.90
21261;DHT22;10788;47.930;9.766;2023-09-18T15:59:50;19.00;99.90
21261;DHT22;10788;47.930;9.766;2023-09-18T16:02:15;18.90;99.90